Date,TemperatureHighF,TemperatureAvgF,TemperatureLowF,DewpointHighF,DewpointAvgF,DewpointLowF,HumidityHigh,HumidityAvg,HumidityLow,PressureMaxIn,PressureMinIn,WindSpeedMaxMPH,WindSpeedAvgMPH,GustSpeedMaxMPH,PrecipitationSumIn
2013-1-1,38.0,32.2,24.0,34.3,27.1,16.0,95,81,65,29.99,29.83,11,6,25,0.02
2013-1-2,32.0,24.2,19.0,20.6,16.9,11.8,96,74,57,30.15,29.98,11,4,20,0.00
2013-1-3,24.0,19.3,15.0,22.0,15.9,8.5,100,88,58,30.21,30.11,10,3,18,0.01
2013-1-4,37.0,29.9,17.0,33.2,27.6,17.0,100,91,67,30.11,29.94,11,4,20,0.00
2013-1-5,41.0,30.8,20.0,30.8,25.7,20.0,100,84,59,30.38,29.96,10,2,22,0.00
2013-1-6,41.0,31.4,20.0,38.6,30.6,20.0,100,97,88,30.33,30.04,8,1,14,0.00
2013-1-7,44.0,31.1,21.0,39.2,29.9,21.0,100,95,79,30.52,30.07,9,1,17,0.00
2013-1-8,46.0,36.4,23.0,40.0,34.2,23.0,100,92,76,30.50,30.38,12,3,23,0.00
2013-1-9,46.0,37.0,25.0,44.1,35.7,25.0,100,95,87,30.51,30.12,11,3,25,0.00
2013-1-10,42.0,40.1,39.0,39.1,37.4,34.6,93,90,81,30.20,30.16,12,6,20,0.00
2013-1-11,39.0,39.0,39.0,37.7,37.2,37.1,95,93,93,30.38,30.33,18,3,18,0.19
2013-1-12,47.0,40.6,34.0,43.3,38.3,33.0,96,91,82,30.34,30.21,8,2,12,0.03
2013-1-13,51.0,45.0,39.0,47.3,41.7,36.0,95,88,78,30.27,30.17,8,1,12,0.01
2013-1-14,54.0,48.5,42.0,50.8,43.4,36.6,92,83,75,30.35,30.03,9,2,20,0.00
2013-1-15,42.9,38.9,37.0,38.6,33.9,32.1,91,82,74,30.38,30.27,3,0,9,0.13
2013-1-16,42.0,38.8,35.8,37.8,34.7,32.0,91,85,81,30.31,29.84,13,3,21,0.44
2013-1-17,42.0,36.1,31.3,38.1,33.1,28.7,93,89,79,30.16,29.94,8,2,17,0.00
2013-1-18,31.0,22.1,16.0,28.4,14.5,5.2,99,74,48,30.58,30.10,10,3,27,0.01
2013-1-19,46.0,36.5,13.0,42.0,33.6,8.8,100,89,75,30.54,30.05,14,6,29,0.22
2013-1-20,53.0,44.1,29.0,45.7,36.2,14.8,87,74,54,30.04,29.68,16,7,27,0.00
2013-1-21,32.0,26.7,23.0,26.0,15.5,6.8,100,65,43,30.20,29.86,10,2,20,0.00
2013-1-22,28.0,22.8,16.0,25.8,15.9,3.9,99,77,45,30.13,29.78,10,4,22,0.01
2013-1-23,17.0,12.9,10.0,8.3,2.1,-2.0,81,61,52,30.22,30.11,12,5,28,0.00
2013-1-24,19.0,13.5,8.0,12.1,5.4,-0.1,96,71,49,30.25,30.11,13,5,27,0.00
2013-1-25,24.0,17.4,11.0,14.2,7.3,4.1,88,65,47,30.38,30.14,10,3,20,0.00
2013-1-26,26.0,20.7,17.0,25.0,17.1,6.3,100,87,57,30.26,30.06,8,3,20,0.00
2013-1-27,29.0,22.0,16.0,14.7,11.9,8.0,87,66,50,30.54,30.26,12,4,25,0.01
2013-1-28,32.0,25.8,17.0,29.7,18.1,8.5,100,74,44,30.54,30.10,8,1,12,0.00
2013-1-29,38.0,34.8,31.0,33.9,31.0,28.1,90,86,80,30.32,30.09,6,0,9,0.05
2013-1-30,59.0,50.3,37.0,46.5,40.8,31.7,90,71,58,30.26,29.68,18,8,35,0.04
2013-1-31,57.0,47.8,32.0,46.7,38.1,18.9,87,70,54,29.70,29.19,23,10,44,0.31
2013-2-1,35.0,29.2,23.0,21.6,15.0,8.0,73,55,43,30.15,29.70,14,6,25,0.00
2013-2-2,30.0,25.1,19.0,28.5,14.2,4.7,98,64,38,30.34,30.14,11,4,20,0.00
2013-2-3,35.0,27.3,20.0,32.4,25.5,20.0,100,93,85,30.16,29.74,8,1,17,0.06
2013-2-4,33.0,26.0,23.0,24.0,17.0,9.0,98,71,46,30.04,29.76,12,6,22,0.04
2013-2-5,31.0,25.3,23.0,27.0,20.4,11.9,100,82,62,30.13,30.01,8,2,16,0.00
2013-2-6,39.0,32.1,27.0,34.9,27.4,18.5,90,83,68,30.36,29.98,9,2,15,0.01
2013-2-7,29.0,25.0,20.0,27.5,17.5,9.3,100,74,50,30.62,30.36,8,2,16,0.00
2013-2-8,35.0,31.1,28.0,33.0,29.2,27.0,99,93,81,30.58,29.42,19,10,40,0.34
2013-2-9,31.0,19.9,19.0,29.7,17.6,16.3,95,91,88,30.15,29.42,16,7,35,0.00
2013-2-10,30.0,22.6,16.0,28.5,21.8,16.0,100,97,80,30.48,30.15,10,3,20,0.00
2013-2-11,47.0,33.9,16.0,41.8,29.2,16.0,100,84,68,30.46,29.69,15,4,26,0.40
2013-2-12,43.0,37.1,32.0,37.9,32.4,24.4,91,83,63,29.97,29.68,11,5,20,0.00
2013-2-13,41.0,32.9,26.0,33.7,28.5,24.1,98,84,57,29.96,29.75,7,2,12,0.00
2013-2-14,42.0,32.6,27.0,36.2,27.8,25.0,98,83,63,30.13,29.77,5,0,12,0.24
2013-2-15,48.0,38.0,29.0,42.8,33.3,24.6,90,83,65,30.14,30.03,12,3,20,0.00
2013-2-16,43.0,35.8,27.0,38.7,31.0,23.9,88,83,64,30.04,29.71,10,2,20,0.00
2013-2-17,34.0,23.7,17.0,30.3,20.0,8.9,100,86,69,29.72,29.34,15,8,29,0.00
2013-2-18,31.0,22.8,16.0,14.1,10.7,6.0,88,61,41,30.24,29.69,14,9,28,0.01
2013-2-19,47.0,36.6,24.0,39.0,28.1,12.3,92,72,50,30.25,29.68,17,6,26,0.92
2013-2-20,44.0,33.5,26.0,33.0,24.0,13.8,88,68,55,29.87,29.62,12,6,22,0.04
2013-2-21,35.0,28.0,25.0,33.2,20.3,14.4,98,73,52,30.14,29.86,13,6,22,0.00
2013-2-22,38.0,34.3,32.0,33.2,30.3,25.7,98,86,66,30.45,30.14,11,2,23,0.00
2013-2-23,40.0,34.9,27.0,36.7,31.3,25.0,97,87,66,30.42,29.98,11,5,17,0.19
2013-2-24,43.0,38.5,33.0,35.3,30.4,24.6,76,72,69,29.98,29.64,10,5,21,1.64
2013-2-25,42.0,33.0,24.0,34.7,27.1,21.6,98,79,57,30.33,29.90,8,2,18,0.08
2013-2-26,44.0,33.4,22.0,34.5,27.6,18.5,93,80,51,30.42,30.23,10,3,14,0.00
2013-2-27,44.0,41.4,39.0,34.0,29.1,25.6,82,62,55,30.23,29.65,18,10,29,0.52
2013-2-28,41.0,38.2,34.0,29.7,25.0,19.9,67,59,47,29.74,29.58,9,1,14,0.00
2013-3-1,39.0,35.8,32.0,32.1,24.8,18.1,80,65,51,29.76,29.57,7,2,20,0.03
2013-3-2,43.0,36.1,33.0,37.9,28.7,19.8,86,75,58,29.77,29.68,6,1,13,0.00
2013-3-3,42.0,35.9,33.3,36.9,29.0,24.2,85,76,67,29.71,29.64,6,1,13,0.00
2013-3-4,41.6,34.2,31.0,33.4,27.3,21.7,91,76,65,29.76,29.63,9,5,21,0.03
2013-3-5,45.0,36.4,31.0,37.5,29.4,24.8,86,76,57,30.12,29.76,8,3,18,0.03
2013-3-6,43.0,37.4,33.0,37.3,28.0,22.6,81,69,56,30.16,30.02,12,7,28,0.03
2013-3-7,37.0,35.7,34.0,27.1,21.6,18.6,67,56,51,30.02,29.92,14,8,32,1.26
2013-3-8,38.0,35.1,33.0,31.1,20.5,13.0,76,56,37,30.14,29.90,12,7,36,0.98
2013-3-9,40.0,35.7,33.0,32.4,26.9,21.5,76,70,61,30.41,30.13,10,4,32,0.00
2013-3-10,43.0,36.9,33.0,37.3,28.7,22.3,82,72,62,30.50,30.39,5,2,13,0.00
2013-3-11,50.0,40.1,33.0,45.2,29.1,19.1,87,65,41,30.44,30.30,8,3,14,0.00
2013-3-12,51.0,46.7,41.0,30.4,18.1,6.8,46,32,17,30.30,29.88,14,8,24,0.24
2013-3-13,52.0,44.7,37.0,42.3,20.3,-11.6,88,47,10,29.91,29.80,13,3,23,0.65
2013-3-14,40.9,32.7,25.0,32.3,24.2,15.2,85,71,51,29.96,29.83,12,4,20,0.00
2013-3-15,39.0,29.4,21.0,32.6,18.9,10.5,91,67,34,30.06,29.89,10,6,24,0.00
2013-3-16,39.4,32.6,27.0,32.8,22.6,13.9,93,68,42,30.26,29.92,12,3,24,0.00
2013-3-17,39.0,30.6,23.0,29.5,18.2,9.2,93,62,37,30.77,30.25,9,2,24,0.00
2013-3-18,38.0,28.3,21.0,27.2,17.7,8.0,93,65,42,30.97,30.77,8,3,13,0.00
2013-3-19,41.0,34.9,28.0,9.3,-15.9,-30.6,43,12,4,30.84,30.12,15,10,27,0.85
2013-3-20,41.0,32.5,27.0,31.5,11.5,-49.5,90,54,2,30.58,30.25,10,5,24,0.00
2013-3-21,43.6,33.2,26.0,35.0,14.8,-29.0,86,51,6,30.59,30.43,7,1,16,0.01
2013-3-22,37.0,31.9,28.0,27.8,-21.8,-61.2,72,29,1,30.90,30.43,10,2,18,0.44
2013-3-23,44.0,35.4,29.0,32.0,25.1,18.5,82,67,46,31.20,30.87,10,6,20,0.04
2013-3-24,45.9,34.7,27.0,33.2,27.8,16.8,93,76,52,31.33,29.83,8,3,20,0.00
2013-3-25,49.0,36.5,27.0,38.9,22.5,-14.4,88,61,9,29.84,29.54,9,4,20,0.00
2013-3-26,45.9,37.8,33.0,35.3,28.2,14.3,90,69,44,29.86,29.54,10,4,22,0.05
2013-3-27,52.0,41.1,32.0,39.8,29.4,21.4,90,65,38,29.93,29.83,7,2,17,0.00
2013-3-28,49.0,41.2,36.0,41.8,25.2,-7.6,87,57,12,30.11,29.91,12,2,20,0.10
2013-3-29,55.0,43.7,33.0,45.4,32.6,5.1,87,66,23,30.14,30.07,8,1,12,0.00
2013-3-30,54.0,43.3,34.0,45.6,30.9,19.1,88,62,45,30.20,30.11,7,1,12,0.00
2013-3-31,59.0,43.5,29.0,42.3,24.6,-13.0,89,50,8,30.24,29.90,14,3,21,0.02
2013-4-1,57.0,47.4,37.0,99.9,24.7,-50.6,75,39,1,29.90,29.66,16,7,27,0.16
2013-4-2,44.0,36.4,30.0,23.8,17.5,11.3,60,47,34,30.15,29.88,14,6,26,0.00
2013-4-3,47.0,37.7,31.0,21.1,18.1,12.3,63,46,32,30.44,30.14,14,7,24,0.00
2013-4-4,50.0,39.1,32.0,34.5,24.0,16.3,87,56,31,31.70,30.44,14,5,22,0.00
2013-4-5,42.0,38.1,38.0,34.6,30.9,30.8,77,75,73,31.67,30.22,9,5,20,0.00
2013-4-6,43.0,36.1,29.0,33.4,20.6,8.7,92,56,27,31.15,29.25,12,4,25,0.00
2013-4-7,53.1,40.7,26.1,99.9,25.4,-46.1,89,52,4,29.74,28.38,17,5,25,0.00
2013-4-8,62.1,51.6,45.1,51.5,29.8,-28.8,87,52,3,29.64,27.05,12,4,24,0.01
2013-4-9,67.1,51.6,42.1,99.9,38.0,-45.6,87,51,1,28.29,28.03,11,4,18,0.13
2013-4-10,57.1,48.1,43.1,99.9,24.5,-49.9,66,34,1,28.19,28.05,10,3,12,0.23
2013-4-11,52.1,45.5,43.1,99.9,53.3,-51.1,67,25,1,28.32,27.98,8,2,14,0.03
2013-4-12,44.1,41.8,38.1,99.9,47.8,-54.2,76,38,1,28.35,27.83,18,7,27,0.72
2013-4-13,47.1,41.1,36.1,99.9,53.6,-54.2,52,12,1,28.14,27.83,10,2,23,0.06
2013-4-14,52.1,44.8,38.1,99.9,60.1,-55.5,87,42,1,28.37,28.11,8,1,13,0.01
2013-4-15,57.1,45.0,36.1,49.6,23.6,-34.3,84,51,3,28.63,28.37,10,2,14,0.00
2013-4-16,60.1,48.5,36.1,99.9,59.2,-56.1,83,39,1,28.63,28.31,16,6,25,0.00
2013-4-17,63.1,52.8,40.1,99.9,45.8,-46.8,84,36,1,28.52,28.26,13,3,24,0.04
2013-4-18,59.1,47.2,36.1,99.9,35.9,-54.2,82,32,1,30.09,28.51,14,5,20,0.00
2013-4-19,69.1,61.3,49.1,99.9,99.9,-48.0,0,0,100,29.66,29.31,19,8,35,0.00
2013-4-20,65.1,53.3,42.1,99.9,79.0,-52.4,51,6,1,29.49,28.12,19,5,36,0.29
2013-4-21,52.1,43.1,35.1,38.0,31.4,15.8,89,65,44,28.87,28.39,9,3,20,0.00
2013-4-22,55.1,42.5,32.1,99.9,28.7,-56.7,87,57,1,28.93,28.75,11,5,17,0.00
2013-4-23,45.1,43.6,42.1,99.9,85.3,-52.4,44,4,1,28.75,28.15,9,5,20,1.03
2013-4-24,57.1,48.1,43.1,99.9,88.3,-47.4,8,1,2,28.15,27.97,12,5,24,0.27
2013-4-25,58.1,51.4,41.1,99.9,72.6,-51.7,83,22,1,28.43,28.09,15,3,23,0.04
2013-4-26,59.1,47.3,38.1,99.9,69.4,-52.4,81,24,1,28.61,28.43,6,2,10,0.00
2013-4-27,62.1,47.9,36.1,99.9,64.0,-56.1,85,30,2,28.61,28.52,9,1,10,0.00
2013-4-28,66.1,50.5,36.1,99.9,63.9,-56.1,82,31,1,28.55,28.46,11,2,15,0.00
2013-4-29,67.1,51.9,40.1,99.9,61.2,-52.4,84,34,1,28.50,28.44,11,2,15,0.00
2013-4-30,67.1,49.7,37.1,99.9,48.0,-55.5,83,34,1,28.56,28.45,10,2,13,0.00
2013-5-1,61.1,49.6,41.1,99.9,54.3,-53.0,57,14,1,28.67,28.55,8,2,10,0.00
2013-5-2,71.1,51.3,40.1,99.9,77.2,-53.6,84,21,1,28.65,28.58,9,2,13,0.00
2013-5-3,55.1,46.3,38.1,99.9,63.1,-54.9,52,11,1,28.67,28.55,9,2,17,0.00
2013-5-4,59.1,47.2,40.1,99.9,62.5,-53.6,78,31,1,28.55,28.50,9,2,15,0.00
2013-5-5,60.1,48.4,39.1,99.9,56.1,-54.0,76,29,1,28.50,28.46,9,3,12,0.00
2013-5-6,59.1,48.7,40.1,99.9,71.6,-53.6,51,7,1,28.49,28.39,10,2,12,0.00
2013-5-7,71.1,57.5,47.1,99.9,81.5,-49.3,69,15,1,28.40,28.34,11,2,14,0.00
2013-5-8,69.1,58.8,54.1,99.9,92.9,-38.2,15,1,1,28.42,28.24,11,4,17,0.14
2013-5-9,70.1,59.6,53.1,99.9,99.6,-44.9,7,0,7,28.24,28.08,10,2,12,0.06
2013-5-10,69.1,60.2,53.1,99.9,75.8,-42.5,73,13,1,28.16,28.06,7,2,12,0.00
2013-5-11,67.1,60.9,57.1,99.9,99.9,-30.9,0,0,100,28.14,27.93,19,5,23,0.44
2013-5-12,64.1,59.5,52.1,99.9,85.3,-44.9,49,3,1,27.98,27.78,11,4,20,0.22
2013-5-13,61.1,53.0,47.1,47.9,41.1,22.8,80,65,33,28.17,27.98,13,4,20,0.01
2013-5-14,60.1,51.3,46.1,46.7,40.1,12.9,81,67,26,28.21,28.13,10,2,20,0.00
2013-5-15,67.1,55.2,48.1,99.9,51.7,-44.9,80,48,1,28.24,27.87,15,5,24,0.00
2013-5-16,77.1,64.2,54.1,99.9,69.5,-44.9,79,36,1,27.96,27.83,9,2,16,0.00
2013-5-17,68.1,57.5,48.1,99.9,49.0,-48.6,79,51,1,28.40,27.95,9,2,20,0.00
2013-5-18,71.1,57.8,46.1,99.9,71.5,-43.7,79,28,1,28.50,28.40,7,2,12,0.00
2013-5-19,74.1,60.7,51.1,99.9,72.5,-46.8,78,34,1,28.54,28.45,9,2,15,0.02
2013-5-20,74.1,64.2,56.1,99.9,99.9,-24.0,0,0,100,28.45,28.12,9,3,16,0.48
2013-5-21,77.1,63.0,55.1,99.9,99.9,-24.7,0,0,100,28.16,28.06,10,2,15,0.00
2013-5-22,67.1,58.2,52.1,99.9,99.9,-26.8,0,0,100,28.15,28.07,10,2,16,0.00
2013-5-23,73.1,65.9,61.1,99.9,99.9,-20.6,0,0,100,28.14,28.08,14,6,25,0.69
2013-5-24,65.1,63.0,56.1,99.9,99.9,-24.0,0,0,100,28.08,27.90,17,5,30,1.76
2013-5-25,57.1,52.2,45.1,99.9,99.9,-31.6,0,0,100,27.92,27.84,8,2,17,0.10
2013-5-26,55.1,47.8,42.1,99.9,99.9,-33.7,0,0,100,28.24,27.88,10,4,18,0.01
2013-5-27,67.1,55.9,48.1,99.9,78.9,-35.2,69,20,8,28.35,28.24,7,2,13,0.00
2013-5-28,68.1,58.1,47.1,99.9,80.9,-38.2,69,14,1,28.43,28.35,8,2,12,0.00
2013-5-29,65.1,59.5,56.1,99.9,99.9,-24.0,0,0,100,28.42,28.20,12,4,24,0.74
2013-5-30,80.1,69.3,61.1,99.9,99.9,-20.6,0,0,100,28.27,28.20,9,1,17,0.09
2013-5-31,85.1,72.9,63.1,99.9,81.5,-35.8,65,16,1,28.28,28.16,9,2,18,0.00
2013-6-1,84.1,72.6,66.1,99.9,88.6,-37.6,35,3,1,28.20,28.12,10,4,20,0.00
2013-6-2,77.1,68.9,64.1,99.9,99.9,-38.8,0,0,100,28.14,28.04,14,5,23,0.00
2013-6-3,67.1,64.8,63.1,99.9,99.9,99.9,0,0,100,28.06,27.99,10,4,16,1.93
2013-6-4,66.1,59.0,52.1,99.9,87.7,-38.2,57,6,6,28.26,27.98,7,2,16,0.00
2013-6-5,66.1,57.4,50.1,99.9,78.3,-45.5,64,8,1,28.38,28.26,9,1,10,0.00
2013-6-6,67.1,59.3,52.1,99.9,64.3,-46.2,17,2,1,28.39,28.29,9,2,13,0.00
2013-6-7,66.1,57.3,55.1,7.8,1.0,-0.6,10,10,9,28.29,27.95,12,3,20,0.92
2013-6-8,68.1,64.1,58.1,99.9,34.9,-13.4,9,3,5,28.18,27.75,15,4,24,0.25
2013-6-9,71.1,65.1,59.1,99.9,99.9,-8.3,0,0,100,28.34,28.18,6,1,10,0.00
2013-6-10,65.1,60.8,57.1,99.9,99.9,-9.8,0,0,100,28.40,28.20,6,1,10,0.18
2013-6-11,70.1,61.7,56.1,99.9,99.9,-10.5,0,0,100,28.21,27.72,9,2,16,0.66
2013-6-12,65.1,59.5,55.1,99.9,99.9,-11.2,0,0,100,27.96,27.74,8,1,23,0.01
2013-6-13,61.1,57.4,54.1,99.9,99.9,99.9,0,0,100,28.00,27.82,4,0,10,0.10
2013-6-14,58.1,54.5,52.1,99.9,99.9,-13.3,0,0,100,27.93,27.74,8,2,23,0.72
2013-6-15,68.1,60.7,53.1,99.9,82.6,-38.2,74,21,3,28.13,27.92,7,1,13,0.01
2013-6-16,73.1,64.4,57.1,99.9,81.2,-37.6,73,18,7,28.13,27.95,11,2,20,0.00
2013-6-17,78.1,68.7,63.1,99.9,83.7,-38.8,56,11,3,28.11,27.97,9,2,20,0.00
2013-6-18,71.1,64.3,60.1,99.9,99.9,-41.3,0,0,100,28.13,28.06,5,0,9,0.01
2013-6-19,68.1,61.0,55.1,99.9,73.2,-43.1,69,20,1,28.34,28.04,7,1,17,0.02
2013-6-20,72.1,63.0,54.1,99.9,71.2,-19.9,76,38,31,28.48,28.34,10,2,16,0.00
2013-6-21,74.1,66.8,60.1,65.3,55.5,36.6,78,68,40,28.47,28.41,8,2,18,0.00
2013-6-22,77.1,68.4,63.1,99.9,62.9,-38.2,79,53,1,28.44,28.36,10,2,15,0.00
2013-6-23,78.1,71.5,65.1,99.9,82.2,-38.2,54,10,2,28.38,28.25,11,3,20,0.00
2013-6-24,84.1,75.5,68.1,99.9,75.6,-35.8,18,2,1,28.25,28.08,6,2,12,0.01
2013-6-25,85.1,74.7,68.1,99.9,77.7,-36.4,68,19,1,28.11,27.96,7,1,16,0.00
2013-6-26,81.1,73.5,67.1,99.9,86.9,-34.5,51,5,1,28.05,27.93,5,0,12,0.00
2013-6-27,70.1,66.0,64.1,99.9,96.4,-26.3,2,0,2,28.06,27.96,6,0,7,0.00
2013-6-28,71.1,68.8,64.1,99.9,98.6,-26.3,2,0,2,27.96,27.77,14,4,26,0.15
2013-6-29,69.1,68.8,67.1,99.9,98.4,-24.1,2,0,2,27.84,27.77,8,3,14,0.01
2013-7-6,77.1,76.5,76.1,99.9,95.5,-18.5,2,0,2,28.21,28.20,1,0,12,0.01
2013-7-7,86.6,76.5,71.1,99.9,76.7,-31.8,69,13,2,28.22,28.14,3,0,7,0.00
2013-7-8,83.6,75.8,69.6,99.9,85.0,-31.8,67,19,1,28.25,28.14,7,0,13,0.00
2013-7-9,72.6,70.6,69.6,99.9,99.9,-14.8,0,0,100,28.30,28.24,3,0,5,0.00
2013-7-10,78.6,73.9,69.6,99.9,93.0,-14.8,3,0,3,28.28,28.05,9,2,18,0.00
2013-7-11,76.6,74.0,71.6,99.9,97.6,-12.1,3,0,3,28.11,28.02,6,1,10,0.01
2013-7-12,71.6,69.2,66.6,99.9,97.3,-16.9,3,0,3,28.34,28.11,4,1,17,0.00
2013-7-13,71.6,69.8,68.6,99.9,99.9,-15.5,0,0,100,28.51,28.49,4,1,7,0.01
2013-7-14,80.6,74.3,69.6,99.9,99.4,-14.8,3,0,3,28.50,28.40,3,0,6,0.01
2013-7-15,80.6,76.2,71.6,99.9,95.8,-33.0,24,0,1,28.40,28.31,4,0,5,0.00
2013-7-16,82.6,75.5,69.6,99.9,74.8,-34.2,66,20,1,28.37,28.28,4,0,9,0.00
2013-7-17,81.6,74.5,67.6,99.9,69.9,-31.2,67,24,1,28.40,28.25,7,1,10,0.00
2013-7-18,82.6,77.1,73.6,99.9,69.8,-33.0,69,19,1,28.25,28.17,6,1,10,0.00
2013-7-19,89.6,81.2,74.6,99.9,75.6,-32.4,68,23,1,28.17,27.98,9,2,18,0.01
2013-7-20,86.6,81.3,77.6,99.9,83.9,-30.6,73,26,3,28.00,27.89,9,2,25,0.00
2013-7-21,75.6,71.5,67.6,99.9,70.9,-34.8,53,13,1,28.21,28.08,6,1,9,0.00
2013-7-22,73.6,70.0,67.6,99.9,99.9,-24.0,0,0,100,28.22,28.10,5,1,6,0.00
2013-7-23,81.6,74.8,69.6,99.9,90.6,-33.0,19,1,1,28.10,27.76,9,2,17,0.00
2013-7-24,83.6,76.2,69.6,99.9,84.3,-35.4,69,23,1,28.10,27.78,5,0,12,0.01
2013-7-25,69.6,65.6,64.6,99.9,51.7,-38.5,55,16,1,28.25,28.10,6,1,16,0.17
2013-7-26,66.6,65.6,64.6,99.9,99.9,-26.0,0,0,100,28.21,28.05,9,1,18,1.53
2013-7-27,76.6,70.1,64.6,99.9,86.5,-35.4,69,13,2,28.27,28.21,7,1,12,0.00
2013-7-28,73.6,69.8,66.6,99.9,98.7,-14.8,3,0,3,28.25,28.15,4,0,7,0.69
2013-7-29,76.6,71.8,66.6,99.9,86.9,-34.2,32,2,1,28.25,28.19,7,1,10,0.00
2013-7-30,74.6,69.5,65.6,99.9,77.4,-37.3,84,33,1,28.29,28.21,6,0,8,0.00
2013-7-31,75.6,69.2,64.6,99.9,72.9,-34.2,82,35,1,28.32,28.26,4,0,6,0.00
2013-8-1,75.6,69.3,64.6,99.9,83.4,-38.5,83,25,1,28.27,28.11,8,2,14,0.09
2013-8-2,75.6,70.4,65.6,99.9,81.3,-19.5,73,25,3,28.11,28.00,7,1,10,0.06
2013-8-3,72.6,69.9,67.6,99.9,55.1,-36.7,73,29,1,28.06,28.00,7,2,15,0.01
2013-8-4,74.6,68.1,59.6,99.9,50.7,-40.9,86,51,1,28.05,27.98,6,0,15,0.51
2013-8-5,69.6,64.1,58.6,99.9,58.8,-40.9,87,48,1,28.23,28.05,7,1,18,0.00
2013-8-6,71.6,63.7,55.6,99.9,52.3,-44.0,86,49,1,28.37,28.23,4,0,6,0.00
2013-8-7,73.6,65.1,57.6,99.9,72.6,-42.8,87,43,1,28.40,28.34,7,1,12,0.00
2013-8-8,78.6,70.1,61.6,99.9,72.5,-39.7,78,25,1,28.35,28.26,9,2,16,0.00
2013-8-9,74.6,72.4,66.6,99.9,97.1,-37.3,1,0,1,28.29,28.00,12,4,23,0.31
2013-8-10,77.6,72.9,66.6,99.9,77.1,-34.8,82,37,13,28.20,28.00,4,0,10,0.01
2013-8-11,72.6,66.6,59.6,99.9,50.4,-40.3,88,56,1,28.27,28.19,6,1,9,0.00
2013-8-12,75.6,69.7,62.6,99.9,62.4,-39.7,79,39,1,28.24,28.14,6,1,13,0.00
2013-8-13,71.6,68.5,66.6,99.9,99.9,-16.9,0,0,100,28.14,27.88,4,0,6,0.04
2013-8-14,71.6,67.9,64.6,99.9,75.6,-26.0,86,47,2,28.13,27.86,5,0,10,0.00
2013-8-15,72.6,66.4,61.6,63.2,59.2,54.0,88,78,58,28.33,28.13,6,1,10,0.00
2013-8-16,75.6,68.3,60.6,65.9,57.0,8.8,88,69,11,28.78,28.32,8,1,13,0.00
2013-8-17,75.6,67.9,62.6,99.9,61.1,-39.7,80,37,1,29.80,28.77,3,0,6,0.00
2013-8-18,76.6,65.9,59.6,99.9,79.1,-40.9,79,29,1,30.00,28.32,4,0,7,0.07
2013-8-19,75.6,67.7,57.6,99.9,73.0,-42.8,73,31,4,29.53,28.18,5,0,10,0.01
2013-8-20,77.6,71.9,67.6,99.9,52.7,-36.7,83,50,1,28.30,28.17,4,0,7,0.00
2013-8-21,81.6,72.8,65.6,99.9,68.2,-37.9,84,41,1,28.35,28.25,6,0,12,0.00
2013-8-22,80.6,73.7,67.6,99.9,63.8,-36.1,70,33,1,28.25,28.05,7,2,13,0.00
2013-8-23,72.6,69.3,62.6,99.9,67.9,-39.7,82,41,1,28.29,28.02,8,1,20,0.00
2013-8-24,69.6,63.9,55.6,61.8,42.9,-27.3,87,56,2,28.69,28.29,7,1,15,0.00
2013-8-25,74.6,65.9,55.6,99.9,57.6,-43.0,86,48,1,28.89,28.41,4,0,8,0.00
2013-8-26,76.6,70.8,65.6,70.0,59.8,49.1,85,69,48,29.65,28.17,11,2,18,0.00
2013-8-27,71.6,71.6,71.6,54.1,54.1,54.1,54,54,54,29.61,29.61,3,3,4,0.00
2013-8-28,71.6,71.2,64.6,99.9,56.9,47.6,54,51,54,29.61,28.15,3,3,8,0.00
2013-8-29,67.6,64.6,60.6,99.9,99.9,43.9,0,0,100,28.25,28.15,6,1,13,0.00
2013-8-30,73.6,66.7,59.6,99.9,76.3,-36.1,43,7,1,28.57,28.16,6,1,13,0.00
2013-8-31,75.6,72.0,68.6,99.9,99.9,-34.2,0,0,100,29.47,28.22,7,2,13,0.00
2013-9-1,76.6,72.4,68.6,99.9,99.9,-36.1,0,0,100,29.57,28.05,7,2,15,0.01
2013-9-2,79.6,72.9,67.6,99.9,89.3,-36.7,60,3,1,28.11,27.96,8,2,17,0.00
2013-9-3,80.6,73.6,66.6,99.9,87.8,-36.2,62,7,1,28.01,27.92,9,1,13,0.02
2013-9-7,65.6,65.0,64.6,61.3,60.4,59.7,87,85,83,28.12,28.10,7,2,12,0.04
2013-9-8,65.6,59.9,54.6,61.0,55.7,50.8,89,86,83,28.26,28.04,6,1,12,0.04
2013-9-9,65.6,57.7,49.6,56.4,50.5,38.3,89,78,53,28.43,28.27,7,1,13,0.00
2013-9-10,72.6,65.1,54.6,65.7,45.2,6.1,80,52,12,28.40,28.26,10,2,21,0.00
2013-9-11,83.6,75.2,69.6,99.9,67.8,-34.8,72,23,1,32.25,28.23,7,2,13,0.00
2013-9-12,78.6,73.0,70.6,99.9,86.4,-34.8,44,5,1,30.05,29.76,10,3,20,0.00
2013-9-13,71.6,69.4,62.6,99.9,99.9,-39.7,0,0,100,29.76,29.62,8,1,14,0.00
2013-9-14,67.6,62.3,56.6,99.9,75.2,-42.2,74,21,1,30.07,29.75,4,0,10,0.00
2013-9-15,68.6,60.6,54.6,99.9,72.1,-25.0,85,47,15,30.19,30.07,5,0,10,0.03
2013-9-16,64.6,60.4,53.6,99.9,33.2,-45.2,65,28,1,30.20,30.04,7,0,15,0.03
2013-9-17,58.6,52.9,46.6,99.9,45.4,-45.4,88,71,2,30.40,30.20,9,2,17,0.20
2013-9-18,66.6,57.8,46.6,99.9,46.3,-48.3,86,47,1,30.33,30.17,6,0,9,0.00
2013-9-19,69.6,61.5,54.6,99.9,53.0,-44.6,81,37,1,30.17,30.07,4,0,9,0.00
2013-9-20,73.6,63.7,56.6,99.9,69.8,-37.3,85,37,2,30.12,30.05,6,0,8,0.00
2013-9-21,74.6,64.9,56.6,99.9,70.0,-43.4,80,29,1,30.08,29.83,10,3,17,0.00
2013-9-22,69.6,65.3,57.6,99.9,86.4,-40.9,70,7,1,29.83,29.69,10,2,15,0.00
2013-9-23,60.6,53.6,49.6,53.1,46.3,42.0,87,76,63,29.99,29.81,7,1,14,0.00
2013-9-24,60.6,53.5,47.6,53.4,44.5,26.5,88,72,39,29.99,29.85,7,0,10,0.00
2013-9-25,62.6,54.5,48.6,99.9,39.7,-45.8,86,53,1,29.98,29.88,5,0,10,0.00
2013-9-26,62.6,55.9,50.6,99.9,32.4,-44.6,85,45,1,30.11,29.97,8,1,14,0.00
2013-9-27,62.6,57.6,51.6,99.9,40.6,-46.5,80,38,1,30.26,30.10,6,1,12,0.00
2013-9-28,68.6,57.6,50.6,99.9,69.6,-16.9,83,37,3,30.32,30.25,2,0,4,0.00
2013-9-29,64.6,57.2,48.6,99.9,59.8,-47.7,80,45,1,30.86,30.14,6,0,7,0.00
2013-9-30,59.6,59.6,59.6,52.0,52.0,52.0,76,76,76,30.14,30.14,2,2,2,0.00
2013-10-1,59.6,59.6,59.6,52.0,52.0,52.0,76,76,76,30.14,30.14,2,2,2,0.00
2013-10-2,76.6,70.0,64.6,70.3,63.7,57.5,83,80,72,29.96,29.85,8,1,12,0.00
2013-10-3,71.6,63.4,57.6,65.1,56.6,50.5,81,78,76,30.10,29.96,4,0,5,0.00
2013-10-4,71.6,59.7,55.6,99.9,30.7,-39.7,81,47,1,30.10,30.05,3,0,6,0.00
2013-10-5,67.6,60.9,57.6,3.4,-2.0,-4.7,9,8,7,30.14,30.07,4,0,5,0.54
2013-10-6,61.6,59.3,56.6,-0.4,-2.1,-4.2,8,8,8,30.23,30.13,7,2,12,0.00
2013-10-7,72.6,66.2,60.6,-0.4,-6.9,-16.9,8,5,3,30.16,29.91,12,6,23,0.00
2013-10-8,65.6,58.6,50.6,-0.4,-6.2,-13.9,11,7,4,30.36,29.91,7,1,15,0.00
2013-10-9,63.6,56.2,51.6,4.4,0.6,-3.3,12,10,8,30.45,30.36,5,1,12,0.00
2013-10-10,64.6,58.6,53.6,5.2,2.3,-0.2,12,10,9,30.36,30.15,3,0,7,0.00
2013-10-11,66.6,59.8,54.6,5.2,1.1,-1.9,11,9,8,30.15,30.10,6,1,20,0.00
2013-10-12,63.6,57.9,54.6,2.9,0.2,-1.9,11,9,8,30.38,30.13,5,1,10,0.00
2013-10-13,62.6,54.0,44.6,4.4,-0.3,-5.0,14,11,9,30.44,30.35,5,1,10,0.00
2013-10-14,62.6,50.4,41.6,10.3,1.8,-4.2,16,13,11,30.41,30.28,5,0,7,0.00
2013-10-15,64.6,54.4,45.6,11.9,4.4,-0.1,15,13,11,30.28,30.18,5,0,7,0.00
2013-10-16,61.6,57.8,54.6,6.5,3.9,1.3,13,11,10,30.18,29.92,6,0,9,0.00
2013-10-17,70.6,61.7,56.6,8.3,3.4,-0.4,11,10,8,29.92,29.78,8,1,14,0.03
2013-10-18,69.6,62.8,54.6,6.7,2.8,-1.0,11,9,7,29.92,29.67,8,2,14,0.00
2013-10-19,65.6,57.6,52.6,9.6,4.1,1.0,12,11,10,30.02,29.79,6,1,10,0.04
2013-10-20,63.6,57.3,51.6,7.3,4.3,1.3,14,12,10,30.03,29.73,7,1,14,0.00
2013-10-21,65.6,55.3,46.6,13.4,5.6,-0.1,15,13,11,30.13,30.03,7,1,12,0.00
2013-10-22,70.6,58.8,47.6,14.2,7.8,2.1,16,13,10,30.05,29.73,8,1,13,0.08
2013-10-23,54.6,48.1,42.6,9.8,3.1,-1.3,17,15,13,29.80,29.59,3,0,8,0.00
2013-10-24,54.6,49.1,43.6,9.2,4.8,0.3,17,16,15,29.89,29.63,7,2,16,0.00
2013-10-25,54.6,48.1,43.6,10.6,4.7,1.1,18,17,15,30.15,29.89,7,2,13,0.00
2013-10-26,57.6,50.4,41.6,12.2,6.2,-0.1,18,16,15,30.17,29.90,12,3,25,0.00
2013-10-27,59.6,53.2,46.6,11.8,7.1,2.7,17,15,14,30.06,29.83,8,2,16,0.00
2013-10-28,59.6,51.1,44.6,12.5,6.2,0.3,18,16,14,30.32,30.06,9,2,18,0.00
2013-10-29,52.6,42.3,33.6,11.5,1.4,-4.3,20,18,16,30.40,30.32,6,0,10,0.00
2013-10-30,50.6,43.2,32.6,9.3,2.9,-3.3,21,18,16,30.37,30.20,2,0,5,0.00
2013-10-31,65.6,55.2,40.6,14.3,7.7,-0.9,19,15,11,30.24,29.31,13,4,26,0.00
2013-11-1,69.6,64.7,59.6,11.6,6.0,1.1,12,10,8,29.90,29.56,18,7,36,0.00
2013-11-2,61.6,56.6,51.6,7.6,4.7,2.1,13,12,11,29.73,29.61,6,0,9,0.00
2013-11-3,53.6,46.1,39.6,5.5,0.9,-2.5,17,15,13,30.34,29.71,9,2,18,0.00
2013-11-4,46.6,40.2,36.6,6.5,0.1,-1.8,19,18,17,30.68,30.34,7,2,15,0.00
2013-11-5,52.6,41.6,35.6,9.0,1.5,-3.4,20,18,16,30.68,30.52,6,0,8,0.00
2013-11-6,59.6,49.4,36.6,13.9,6.0,-1.8,20,17,15,30.53,30.10,9,2,16,0.00
2013-11-7,63.6,56.9,44.6,99.9,5.3,-41.5,15,10,1,30.10,29.68,14,3,24,0.03
2013-11-8,51.6,44.6,40.6,7.3,1.4,-2.5,18,16,14,30.09,29.79,9,3,20,0.00
2013-11-9,47.6,42.1,38.6,6.1,1.6,-0.5,19,18,17,30.19,30.09,8,2,18,0.00
2013-11-10,57.6,48.6,37.6,12.2,5.3,-1.0,19,17,15,30.09,29.73,10,2,21,0.09
2013-11-11,52.6,47.5,42.6,7.6,3.1,-0.5,17,16,15,30.10,29.87,10,4,24,0.00
2013-11-12,52.6,39.0,31.6,6.2,-2.2,-6.7,19,17,14,30.18,29.91,6,2,18,0.17
2013-11-13,39.6,33.5,29.6,-1.0,-4.6,-7.7,20,19,17,30.28,30.16,9,2,18,0.01
2013-11-14,51.6,42.3,30.6,99.9,19.3,-6.8,67,43,17,30.22,30.07,16,3,18,0.00
2013-11-15,59.6,49.5,38.6,99.9,13.7,-44.0,62,26,1,30.25,30.17,8,2,15,0.00
2013-11-16,55.6,46.4,37.6,8.6,2.1,-4.2,18,16,14,30.34,30.23,5,0,10,0.01
2013-11-17,60.6,49.9,36.6,13.9,6.0,-2.1,20,17,14,30.33,29.91,11,4,15,0.16
2013-11-18,62.6,57.7,50.6,11.1,7.5,3.1,15,13,12,29.91,29.60,14,5,32,0.48
2013-11-19,51.6,42.2,34.6,5.4,0.9,-3.5,20,17,15,30.25,29.66,10,3,21,0.00
2013-11-20,44.6,35.3,27.6,4.0,-2.3,-7.3,21,20,17,30.61,30.25,8,2,22,0.00
2013-11-21,51.6,36.4,27.6,9.0,-1.9,-8.2,21,19,16,30.64,30.42,4,0,7,0.00
2013-11-22,52.6,46.4,35.6,7.6,3.5,-2.7,19,17,15,30.42,29.84,8,0,12,0.19
2013-11-23,48.6,44.0,33.6,4.9,1.8,-4.3,19,17,16,29.88,29.77,11,3,22,0.00
2013-11-24,33.6,27.5,23.6,-4.3,-7.6,-9.8,22,21,19,30.14,29.77,14,6,30,0.00
2013-11-25,32.6,26.1,21.6,-3.8,-7.8,-11.5,24,22,21,30.40,30.14,10,3,27,0.00
2013-11-26,47.6,41.4,25.6,5.3,0.4,-8.0,22,18,16,30.36,30.09,8,2,13,0.10
2013-11-27,61.6,54.4,41.6,11.1,6.8,-1.7,17,15,13,30.09,29.15,23,8,41,1.54
2013-11-28,41.6,34.7,28.6,-0.1,-3.1,-6.5,21,19,16,30.44,29.44,12,4,25,0.00
2013-11-29,36.6,30.3,23.6,-0.8,-5.4,-10.7,22,21,19,30.72,30.44,6,2,16,0.00
2013-11-30,38.6,28.5,22.6,0.9,-6.5,-10.6,22,21,19,30.78,30.50,6,0,9,0.00
2013-12-1,52.6,43.1,26.6,8.1,1.8,-8.2,22,18,16,30.50,29.98,12,4,20,0.23
2013-12-2,48.6,43.2,39.6,4.4,0.6,-1.7,18,17,16,29.99,29.91,4,0,9,0.00
2013-12-3,45.6,42.2,37.6,4.5,0.2,-3.4,18,17,16,29.94,29.83,8,1,14,0.00
2013-12-4,44.6,37.6,29.6,1.6,-3.0,-7.7,20,17,16,30.23,29.93,7,1,13,0.00
2013-12-5,57.6,46.0,29.6,10.2,2.6,-6.6,20,17,14,30.25,29.97,12,4,20,0.00
2013-12-6,57.6,52.4,39.6,8.7,4.5,-4.3,16,14,13,30.15,29.90,11,3,17,0.28
2013-12-7,40.6,37.7,31.6,-2.2,-4.1,-7.1,19,16,16,30.45,30.07,6,1,14,0.45
2013-12-8,35.6,30.8,26.6,-2.7,-6.0,-9.1,21,20,19,30.60,30.45,3,0,10,0.00
2013-12-9,48.6,40.5,32.6,5.3,0.1,-4.1,20,18,16,30.49,29.85,16,5,25,0.29
2013-12-10,39.6,34.9,28.6,-0.2,-3.3,-6.6,21,19,17,30.00,29.79,11,2,25,0.04
2013-12-11,34.6,30.5,27.6,-2.2,-5.3,-7.3,21,21,19,30.25,30.00,11,5,27,0.00
2013-12-12,30.6,25.1,20.6,-4.8,-8.0,-10.5,25,23,21,30.25,30.11,8,2,20,0.00
2013-12-13,32.0,26.4,20.6,-4.5,-7.6,-10.1,25,22,20,30.12,29.38,10,-562,20,0.95
2013-12-14,30.9,23.1,18.0,-4.5,-9.6,-12.8,25,23,20,29.93,29.53,0,-999,0,0.00
2013-12-15,52.0,35.5,27.6,7.2,-4.9,-11.2,20,17,14,29.78,28.67,18,-565,18,0.00
2013-12-16,34.6,29.1,23.6,-5.8,-9.7,-12.7,19,18,15,30.23,29.78,9,4,20,0.00
2013-12-17,42.6,28.7,16.6,-1.9,-9.7,-17.6,21,18,14,30.29,29.83,14,3,22,0.16
2013-12-18,38.6,33.6,30.6,-3.8,-7.5,-10.4,17,16,15,30.12,29.75,8,3,21,0.01
2013-12-19,46.6,37.3,30.6,2.7,-4.4,-9.1,17,16,15,30.15,29.99,12,3,22,0.00
2013-12-20,55.6,44.1,29.6,9.2,-0.3,-10.4,17,15,13,30.17,29.98,10,3,20,0.00
2013-12-21,57.6,53.8,47.6,7.9,4.8,1.5,15,13,12,30.03,29.93,12,5,20,0.00
2013-12-22,61.6,55.3,44.6,9.4,5.7,-5.0,16,13,12,30.05,29.86,15,5,26,0.00
2013-12-23,47.6,44.3,39.6,-1.7,-5.0,-8.1,14,12,11,30.09,29.96,4,0,10,0.40
2013-12-24,40.6,35.5,28.6,-4.2,-7.2,-9.7,19,16,12,30.20,30.02,8,1,15,0.23
2013-12-25,29.6,23.6,18.6,-7.7,-10.6,-14.0,23,21,19,30.57,30.19,13,2,20,0.00
2013-12-26,42.6,31.8,20.6,0.8,-6.1,-12.3,23,19,17,30.53,30.08,13,2,20,0.23
2013-12-27,37.6,33.1,30.6,-1.8,-5.5,-7.5,19,18,17,30.29,30.21,8,3,15,0.00
2013-12-28,48.6,38.5,29.6,5.3,-2.3,-8.0,19,17,15,30.27,30.03,8,2,20,0.00
2013-12-29,56.6,44.7,37.6,7.9,-0.2,-5.8,17,15,11,30.09,29.31,15,3,27,0.95
2013-12-30,44.6,37.3,25.6,35.6,-16.7,-56.4,100,13,1,30.16,29.39,7,2,20,0.00
2013-12-31,28.6,25.3,22.6,-8.0,-10.5,-13.5,21,20,18,30.19,30.05,6,1,17,0.01
2014-1-1,30.6,24.6,19.6,-5.6,-9.9,-13.2,23,21,20,30.40,30.18,8,3,20,0.00
2014-1-2,32.6,27.8,22.6,32.6,22.1,-11.7,100,87,20,30.38,29.69,10,4,20,0.00